Time;durP1;ratioP1;P1;durP2;ratioP2;P2;SDS_P1;SDS_P2;PMS_P1;PMS_P2;Temp;Humidity;BMP_temperature;BMP_pressure;BME280_temperature;BME280_humidity;BME280_pressure;Samples;Min_cycle;Max_cycle;Signal;HPM_P1;HPM_P2
2022/01/24 00:01:02;;;;;;;;;;;;;;;-2.10;62.17;102069.09;5083833;28;20335;-69
2022/01/24 00:03:27;;;;;;;;;;;;;;;-2.05;61.82;102075.19;5096812;27;19919;-69
2022/01/24 00:05:53;;;;;;;;;;;;;;;-2.03;61.38;102057.66;5086806;28;19998;-69
2022/01/24 00:08:18;;;;;;;;;;;;;;;-2.06;61.11;102061.19;5087996;28;19915;-69
2022/01/24 00:10:46;;;;;;;;;;;;;;;-2.06;60.66;102070.81;5104694;28;19959;-69
2022/01/24 00:26:49;;;;;;;;;;;;;;;-2.00;58.60;102079.50;5104967;28;19919;-69
2022/01/24 00:29:16;;;;;;;;;;;;;;;-2.02;58.45;102076.03;5111745;28;19915;-68
2022/01/24 00:31:42;;;;;;;;;;;;;;;-2.01;58.49;102082.16;5109016;27;20011;-69
2022/01/24 00:34:07;;;;;;;;;;;;;;;-2.02;58.29;102080.41;5107848;28;20022;-69
2022/01/24 00:36:32;;;;;;;;;;;;;;;-2.02;58.03;102089.19;5107829;28;20331;-69
2022/01/24 00:38:58;;;;;;;;;;;;;;;-2.01;57.79;102087.41;5107156;28;19915;-69
2022/01/24 00:41:24;;;;;;;;;;;;;;;-2.01;57.54;102097.91;5109747;28;19956;-69
2022/01/24 00:46:33;;;;;;;;;;;;;;;-1.99;57.47;102099.69;5112013;28;19922;-69
2022/01/24 00:49:20;;;;;;;;;;;;;;;-1.94;56.67;102113.63;5110896;28;20292;-69
2022/01/24 00:56:59;;;;;;;;;;;;;;;-2.03;57.32;102094.44;5107561;28;19912;-68
2022/01/24 00:59:24;;;;;;;;;;;;;;;-2.02;56.49;102098.81;5106820;28;20341;-70
2022/01/24 01:01:50;;;;;;;;;;;;;;;-2.02;56.62;102101.44;5107803;28;20434;-69
2022/01/24 01:04:16;;;;;;;;;;;;;;;-2.03;56.86;102097.06;5111737;28;19968;-69
2022/01/24 01:06:44;;;;;;;;;;;;;;;-1.98;56.67;102097.91;5084442;28;20384;-69
2022/01/24 01:20:04;;;;;;;;;;;;;;;-2.13;56.65;102106.78;5105398;28;19923;-69
2022/01/24 01:22:30;;;;;;;;;;;;;;;-2.14;56.38;102093.66;5109918;28;19916;-69
2022/01/24 01:24:56;;;;;;;;;;;;;;;-2.14;56.76;102101.53;5108747;28;19916;-69
2022/01/24 01:27:27;;;;;;;;;;;;;;;-2.13;56.61;102106.78;5108738;28;19977;-69
2022/01/24 01:30:07;;;;;;;;;;;;;;;-2.12;56.52;102103.28;5107144;28;19916;-69
2022/01/24 01:32:50;;;;;;;;;;;;;;;-2.17;56.46;102098.97;5098377;28;19947;-69
2022/01/24 01:52:17;;;;;;;;;;;;;;;-2.18;56.90;102105.97;5093953;28;19916;-69
2022/01/24 01:56:33;;;;;;;;;;;;;;;-2.33;57.06;102092.91;5110553;28;19916;-69
2022/01/24 01:58:58;;;;;;;;;;;;;;;-2.30;56.91;102100.78;5109789;28;19912;-69
2022/01/24 02:01:23;;;;;;;;;;;;;;;-2.36;57.36;102088.56;5102289;28;20010;-69
2022/01/24 02:03:50;;;;;;;;;;;;;;;-2.37;57.00;102092.09;5104656;28;20268;-69
2022/01/24 02:06:15;;;;;;;;;;;;;;;-2.37;57.03;102094.72;5104331;28;19956;-69
2022/01/24 02:08:41;;;;;;;;;;;;;;;-2.40;57.05;102100.00;5098593;28;19995;-69
2022/01/24 02:11:10;;;;;;;;;;;;;;;-2.41;57.23;102103.47;5105808;28;19934;-69
2022/01/24 02:13:35;;;;;;;;;;;;;;;-2.39;57.35;102099.09;5093295;28;19915;-68
2022/01/24 02:16:13;;;;;;;;;;;;;;;-2.41;56.89;102107.88;5107113;28;20415;-69
2022/01/24 02:19:05;;;;;;;;;;;;;;;-2.45;57.27;102101.75;5110960;28;20288;-69
2022/01/24 02:21:47;;;;;;;;;;;;;;;-2.47;56.92;102097.41;5102795;28;19923;-69
2022/01/24 02:24:14;;;;;;;;;;;;;;;-2.48;57.36;102100.94;5109418;28;19919;-69
2022/01/24 02:26:40;;;;;;;;;;;;;;;-2.51;57.63;102099.16;5082972;28;19912;-69
2022/01/24 02:29:22;;;;;;;;;;;;;;;-2.51;57.07;102104.41;5083471;28;19964;-67
2022/01/24 02:31:50;;;;;;;;;;;;;;;-2.48;57.10;102107.03;5079862;28;19927;-67
2022/01/24 02:34:19;;;;;;;;;;;;;;;-2.49;57.60;102117.53;5091268;28;19991;-67
2022/01/24 02:36:44;;;;;;;;;;;;;;;-2.53;57.24;102119.34;5105594;28;20249;-67
2022/01/24 02:39:37;;;;;;;;;;;;;;;-2.55;57.32;102121.09;5095486;28;19919;-67
2022/01/24 02:50:25;;;;;;;;;;;;;;;-2.72;57.80;102120.31;5091867;28;20263;-67
2022/01/24 02:52:50;;;;;;;;;;;;;;;-2.75;57.71;102114.19;5100778;28;19912;-67
2022/01/24 02:55:15;;;;;;;;;;;;;;;-2.85;58.35;102110.75;5102374;28;20394;-67
2022/01/24 02:57:41;;;;;;;;;;;;;;;-2.93;58.09;102111.69;5096980;28;19912;-67
2022/01/24 03:00:06;;;;;;;;;;;;;;;-2.98;57.92;102114.31;5112369;28;19919;-67
2022/01/24 03:02:32;;;;;;;;;;;;;;;-3.05;58.24;102128.34;5106628;28;19954;-67
2022/01/24 03:04:57;;;;;;;;;;;;;;;-3.08;58.51;102137.97;5105886;28;19916;-67
2022/01/24 03:07:23;;;;;;;;;;;;;;;-3.18;59.43;102128.38;5094252;28;19920;-67
2022/01/24 03:09:49;;;;;;;;;;;;;;;-3.27;59.34;102137.16;5100065;28;19916;-67
2022/01/24 03:12:26;;;;;;;;;;;;;;;-3.31;59.08;102139.78;5105558;28;19920;-67
2022/01/24 03:14:51;;;;;;;;;;;;;;;-3.38;59.24;102140.69;5104875;28;19916;-67
2022/01/24 03:17:16;;;;;;;;;;;;;;;-3.46;60.45;102138.06;5104083;28;19911;-67
2022/01/24 03:19:42;;;;;;;;;;;;;;;-3.50;59.50;102146.81;5111767;28;19919;-67
2022/01/24 03:22:09;;;;;;;;;;;;;;;-3.62;60.27;102149.47;5106595;28;19933;-67
2022/01/24 03:24:34;;;;;;;;;;;;;;;-3.71;60.58;102146.84;5113004;28;19916;-67
2022/01/24 03:26:59;;;;;;;;;;;;;;;-3.77;60.84;102141.59;5091524;28;19981;-67
2022/01/24 03:29:25;;;;;;;;;;;;;;;-3.79;61.06;102152.97;5102688;28;19915;-67
2022/01/24 03:31:50;;;;;;;;;;;;;;;-3.88;61.00;102147.72;5108342;28;19911;-67
2022/01/24 03:34:15;;;;;;;;;;;;;;;-3.96;61.59;102141.63;5113438;28;19990;-67
2022/01/24 03:36:42;;;;;;;;;;;;;;;-4.04;62.11;102145.97;5107425;27;19911;-67
2022/01/24 03:39:08;;;;;;;;;;;;;;;-4.12;61.96;102156.47;5107354;28;19915;-67
2022/01/24 03:41:33;;;;;;;;;;;;;;;-4.22;61.88;102145.97;5100584;28;19920;-67
2022/01/24 03:44:03;;;;;;;;;;;;;;;-4.26;62.58;102158.16;5108512;28;19938;-67
2022/01/24 03:46:45;;;;;;;;;;;;;;;-4.33;62.27;102148.56;5102373;28;19923;-67
2022/01/24 03:49:44;;;;;;;;;;;;;;;-4.38;62.24;102149.44;5102841;28;20721;-66
2022/01/24 03:51:56;;;;;;;;;;;;;;;-4.44;62.91;102149.41;5104575;28;19923;-67
2022/01/24 03:54:21;;;;;;;;;;;;;;;-4.46;62.50;102154.66;5110978;28;19916;-67
2022/01/24 03:56:46;;;;;;;;;;;;;;;-4.49;63.37;102161.63;5090551;28;19919;-67
2022/01/24 03:59:12;;;;;;;;;;;;;;;-4.50;63.07;102167.72;5108908;28;19923;-67
2022/01/24 04:01:37;;;;;;;;;;;;;;;-4.50;63.99;102165.09;5085209;28;20367;-67
2022/01/24 04:04:02;;;;;;;;;;;;;;;-4.58;63.27;102161.59;5094031;28;19923;-67
2022/01/24 04:06:28;;;;;;;;;;;;;;;-4.51;63.17;102173.84;5084404;28;20014;-67
2022/01/24 04:08:53;;;;;;;;;;;;;;;-4.48;63.93;102179.09;5108221;28;19915;-69
2022/01/24 04:11:19;;;;;;;;;;;;;;;-4.54;63.77;102172.09;5107900;28;19981;-69
2022/01/24 04:13:45;;;;;;;;;;;;;;;-4.53;63.51;102176.44;5092427;28;19938;-69
2022/01/24 04:24:02;;;;;;;;;;;;;;;-4.67;63.39;102186.00;5103209;28;20647;-68
2022/01/24 04:26:27;;;;;;;;;;;;;;;-4.70;64.18;102196.47;5103490;28;19907;-68
2022/01/24 04:28:53;;;;;;;;;;;;;;;-4.67;63.54;102204.34;5102586;28;19911;-68
2022/01/24 04:31:18;;;;;;;;;;;;;;;-4.68;63.55;102204.31;5104351;28;19911;-68
2022/01/24 04:33:44;;;;;;;;;;;;;;;-4.76;63.66;102207.78;5112687;28;20256;-69
2022/01/24 04:36:09;;;;;;;;;;;;;;;-4.78;63.84;102209.50;5107950;28;19911;-68
2022/01/24 04:38:34;;;;;;;;;;;;;;;-4.85;63.82;102210.34;5109324;28;19923;-68
2022/01/24 04:41:04;;;;;;;;;;;;;;;-4.89;63.64;102211.22;5093317;28;19916;-68
2022/01/24 04:46:07;;;;;;;;;;;;;;;-4.98;64.31;102219.00;5112328;28;20356;-68
2022/01/24 04:51:50;;;;;;;;;;;;;;;-5.02;65.15;102232.06;5107962;28;20128;-68
2022/01/24 04:56:59;;;;;;;;;;;;;;;-5.06;64.80;102235.53;5101285;28;19965;-67
2022/01/24 04:59:25;;;;;;;;;;;;;;;-5.07;65.28;102233.75;5100660;28;20360;-67
2022/01/24 05:01:50;;;;;;;;;;;;;;;-5.10;65.04;102236.34;5101430;28;19916;-67
2022/01/24 05:04:16;;;;;;;;;;;;;;;-5.14;65.32;102237.22;5107444;28;19912;-68
2022/01/24 05:06:41;;;;;;;;;;;;;;;-5.18;64.94;102235.44;5099002;28;19970;-67
2022/01/24 05:09:07;;;;;;;;;;;;;;;-5.22;64.53;102241.53;5089074;28;19958;-67
2022/01/24 05:11:39;;;;;;;;;;;;;;;-5.27;64.99;102248.44;5101002;27;20371;-67
2022/01/24 05:23:27;;;;;;;;;;;;;;;-5.45;65.47;102257.03;5105687;28;20061;-67
2022/01/24 05:25:01;;;;;;;;;;;;;;;-5.51;65.68;102267.44;5093036;28;21575;-67
2022/01/24 05:27:26;;;;;;;;;;;;;;;-5.54;65.74;102259.59;5110609;28;20052;-66
2022/01/24 05:29:52;;;;;;;;;;;;;;;-5.58;65.17;102270.00;5106682;28;19920;-66
2022/01/24 05:32:17;;;;;;;;;;;;;;;-5.59;65.36;102263.00;5087293;28;19987;-67
2022/01/24 05:34:42;;;;;;;;;;;;;;;-5.67;65.39;102268.16;5111739;28;19919;-68
2022/01/24 05:37:08;;;;;;;;;;;;;;;-5.69;65.85;102266.41;5109391;28;19904;-68
2022/01/24 05:39:33;;;;;;;;;;;;;;;-5.70;65.98;102264.66;5111848;28;19916;-68
2022/01/24 05:41:58;;;;;;;;;;;;;;;-5.73;66.44;102268.13;5101099;28;19908;-68
2022/01/24 05:44:23;;;;;;;;;;;;;;;-5.78;66.39;102261.09;5092671;28;19953;-68
2022/01/24 05:46:49;;;;;;;;;;;;;;;-5.80;66.46;102258.47;5107613;27;20011;-68
2022/01/24 05:49:14;;;;;;;;;;;;;;;-5.81;66.05;102274.19;5100539;28;19929;-68
2022/01/24 05:51:39;;;;;;;;;;;;;;;-5.83;66.33;102275.91;5107065;28;19977;-68
2022/01/24 05:54:07;;;;;;;;;;;;;;;-5.80;66.79;102286.34;5110688;28;19964;-68
2022/01/24 05:56:32;;;;;;;;;;;;;;;-5.86;66.32;102279.38;5105156;28;20280;-68
2022/01/24 05:58:57;;;;;;;;;;;;;;;-5.89;66.38;102284.56;5094108;28;19908;-68
2022/01/24 06:01:23;;;;;;;;;;;;;;;-5.87;66.70;102285.44;5096701;28;19972;-68
2022/01/24 06:03:48;;;;;;;;;;;;;;;-5.92;66.47;102284.53;5100035;28;19920;-68
2022/01/24 06:06:13;;;;;;;;;;;;;;;-5.95;66.67;102292.31;5100070;28;19911;-68
2022/01/24 06:08:39;;;;;;;;;;;;;;;-5.95;66.88;102292.31;5106906;28;19923;-69
2022/01/24 06:11:04;;;;;;;;;;;;;;;-5.96;66.89;102293.19;5092366;28;20416;-68
2022/01/24 06:13:31;;;;;;;;;;;;;;;-5.98;67.36;102292.28;5084604;28;20288;-68
2022/01/24 06:15:56;;;;;;;;;;;;;;;-5.98;67.50;102294.91;5101666;28;19912;-68
2022/01/24 06:18:25;;;;;;;;;;;;;;;-6.00;67.53;102300.97;5107355;28;19957;-69
2022/01/24 06:20:50;;;;;;;;;;;;;;;-5.98;67.54;102307.06;5100773;28;19920;-69
2022/01/24 06:23:16;;;;;;;;;;;;;;;-5.99;67.85;102308.84;5087022;28;19916;-69
2022/01/24 06:25:41;;;;;;;;;;;;;;;-5.98;67.82;102318.41;5109486;28;19951;-66
2022/01/24 06:28:07;;;;;;;;;;;;;;;-5.95;68.14;102315.81;5102875;28;19920;-66
2022/01/24 06:30:32;;;;;;;;;;;;;;;-5.92;68.30;102321.09;5098129;27;20650;-67
2022/01/24 06:32:57;;;;;;;;;;;;;;;-5.86;68.19;102331.59;5093845;28;20447;-67
2022/01/24 06:35:23;;;;;;;;;;;;;;;-5.84;68.47;102334.25;5104997;27;19980;-67
2022/01/24 06:37:48;;;;;;;;;;;;;;;-5.80;68.57;102333.38;5089189;28;19911;-67
2022/01/24 06:40:14;;;;;;;;;;;;;;;-5.78;68.49;102331.63;5109569;27;19950;-66
2022/01/24 06:42:39;;;;;;;;;;;;;;;-5.74;68.89;102336.06;5134086;27;19954;-66
2022/01/24 06:45:05;;;;;;;;;;;;;;;-5.74;68.81;102339.50;5122181;27;19914;-66
2022/01/24 06:47:30;;;;;;;;;;;;;;;-5.67;68.54;102343.09;5096343;28;19926;-66
2022/01/24 06:49:56;;;;;;;;;;;;;;;-5.63;68.71;102331.78;5095092;28;20280;-66
2022/01/24 06:52:21;;;;;;;;;;;;;;;-5.55;68.82;102348.44;5094881;28;19916;-66
2022/01/24 06:54:46;;;;;;;;;;;;;;;-5.52;68.25;102340.59;5086763;28;20010;-66
2022/01/24 06:57:12;;;;;;;;;;;;;;;-5.47;68.21;102349.38;5112958;28;19962;-66
2022/01/24 06:59:41;;;;;;;;;;;;;;;-5.43;68.26;102346.81;5104707;27;21167;-68
2022/01/24 07:02:08;;;;;;;;;;;;;;;-5.38;68.10;102346.84;5088157;28;19919;-68
2022/01/24 07:04:33;;;;;;;;;;;;;;;-5.36;68.26;102355.56;5105096;27;19945;-68
2022/01/24 07:06:59;;;;;;;;;;;;;;;-5.35;68.06;102347.75;5101290;27;19915;-69
2022/01/24 07:09:24;;;;;;;;;;;;;;;-5.27;68.00;102359.16;5098212;27;19912;-68
2022/01/24 07:11:51;;;;;;;;;;;;;;;-5.24;67.89;102363.53;5088183;28;19926;-69
2022/01/24 07:14:16;;;;;;;;;;;;;;;-5.19;67.94;102367.06;5089850;28;20272;-67
2022/01/24 07:19:23;;;;;;;;;;;;;;;-5.08;68.04;102368.03;5094184;28;19915;-67
2022/01/24 07:21:48;;;;;;;;;;;;;;;-4.99;68.32;102376.81;5094503;28;19923;-68
2022/01/24 07:24:13;;;;;;;;;;;;;;;-4.92;68.13;102383.88;5096519;28;20007;-69
2022/01/24 07:26:39;;;;;;;;;;;;;;;-4.88;68.47;102379.53;5105626;27;19995;-68
2022/01/24 07:29:04;;;;;;;;;;;;;;;-4.78;67.42;102386.56;5103459;28;19911;-68
2022/01/24 07:31:29;;;;;;;;;;;;;;;-4.69;67.23;102397.13;5107264;28;19923;-68
2022/01/24 07:33:55;;;;;;;;;;;;;;;-4.65;67.51;102400.66;5095503;28;19911;-69
2022/01/24 07:36:21;;;;;;;;;;;;;;;-4.56;67.56;102392.81;5104851;28;19916;-69
2022/01/24 07:38:46;;;;;;;;;;;;;;;-4.49;67.12;102389.41;5099150;28;20390;-69
2022/01/24 07:41:12;;;;;;;;;;;;;;;-4.42;67.21;102389.44;5091395;28;20065;-68
2022/01/24 07:43:37;;;;;;;;;;;;;;;-4.34;66.75;102392.09;5075517;28;19947;-68
2022/01/24 07:46:02;;;;;;;;;;;;;;;-4.27;66.65;102394.75;5094168;28;19923;-69
2022/01/24 07:48:28;;;;;;;;;;;;;;;-4.19;66.30;102400.94;5094335;28;19907;-69
2022/01/24 07:50:53;;;;;;;;;;;;;;;-4.11;65.63;102408.81;5093355;28;20392;-69
2022/01/24 07:53:19;;;;;;;;;;;;;;;-4.03;65.36;102409.75;5105142;27;19912;-69
2022/01/24 07:55:45;;;;;;;;;;;;;;;-3.95;65.49;102424.63;5090684;28;19916;-69
2022/01/24 07:58:11;;;;;;;;;;;;;;;-3.89;65.62;102419.41;5094060;28;20280;-69
2022/01/24 08:00:36;;;;;;;;;;;;;;;-3.82;65.21;102428.16;5093764;28;19923;-69
2022/01/24 08:03:02;;;;;;;;;;;;;;;-3.76;64.97;102417.72;5093888;28;19961;-69
2022/01/24 08:05:27;;;;;;;;;;;;;;;-3.69;64.97;102429.97;5075612;28;20402;-69
2022/01/24 08:07:52;;;;;;;;;;;;;;;-3.60;64.68;102425.66;5108227;28;19912;-69
2022/01/24 08:10:18;;;;;;;;;;;;;;;-3.55;64.74;102421.28;5114342;28;19961;-69
2022/01/24 08:12:44;;;;;;;;;;;;;;;-3.51;65.35;102419.53;5095039;28;19961;-69
2022/01/24 08:15:12;;;;;;;;;;;;;;;-3.45;65.25;102428.28;5096534;28;19920;-66
2022/01/24 08:17:37;;;;;;;;;;;;;;;-3.39;64.40;102428.31;5095998;27;19908;-67
2022/01/24 08:20:03;;;;;;;;;;;;;;;-3.31;64.67;102428.34;5106272;28;19980;-66
2022/01/24 08:22:28;;;;;;;;;;;;;;;-3.24;64.12;102430.97;5113336;28;19999;-69
2022/01/24 08:24:53;;;;;;;;;;;;;;;-3.16;63.35;102425.75;5114203;28;19950;-69
2022/01/24 08:27:19;;;;;;;;;;;;;;;-3.08;63.31;102430.13;5112253;28;19935;-69
2022/01/24 08:29:45;;;;;;;;;;;;;;;-3.06;63.67;102428.38;5113856;28;20019;-69
2022/01/24 08:32:11;;;;;;;;;;;;;;;-2.98;62.95;102413.53;5114103;28;19947;-69
2022/01/24 08:34:36;;;;;;;;;;;;;;;-2.93;62.88;102418.78;5113070;28;19960;-69
2022/01/24 08:37:01;;;;;;;;;;;;;;;-2.88;63.01;102425.78;5112170;28;19964;-69
2022/01/24 08:39:27;;;;;;;;;;;;;;;-2.81;62.25;102430.13;5113781;28;19946;-68
2022/01/24 08:46:49;;;;;;;;;;;;;;;-2.65;61.99;102433.63;5092036;28;19947;-66
2022/01/24 08:49:14;;;;;;;;;;;;;;;-2.61;62.32;102432.78;5092292;28;19943;-67
2022/01/24 08:51:40;;;;;;;;;;;;;;;-2.57;61.75;102430.16;5091978;28;19920;-67
2022/01/24 08:54:06;;;;;;;;;;;;;;;-2.51;62.05;102431.91;5091481;28;19911;-65
2022/01/24 08:56:32;;;;;;;;;;;;;;;-2.44;61.94;102439.78;5092684;28;19915;-69
2022/01/24 08:58:57;;;;;;;;;;;;;;;-2.42;61.22;102430.13;5105302;28;20291;-69
2022/01/24 09:01:23;;;;;;;;;;;;;;;-2.35;61.46;102428.38;5108041;28;19920;-69
2022/01/24 09:03:48;;;;;;;;;;;;;;;-2.31;60.78;102430.09;5113050;28;19912;-69
2022/01/24 09:06:17;;;;;;;;;;;;;;;-2.25;61.03;102429.22;5080293;28;20010;-69
2022/01/24 09:08:42;;;;;;;;;;;;;;;-2.20;61.02;102427.47;5113236;28;19911;-69
2022/01/24 09:11:08;;;;;;;;;;;;;;;-2.13;60.69;102439.72;5113092;28;20582;-69
2022/01/24 09:13:33;;;;;;;;;;;;;;;-2.10;60.41;102434.44;5096470;28;19920;-69
2022/01/24 09:15:58;;;;;;;;;;;;;;;-2.05;60.23;102444.06;5105237;28;20295;-69
2022/01/24 09:18:24;;;;;;;;;;;;;;;-1.99;59.66;102436.16;5111080;28;19915;-69
2022/01/24 09:20:50;;;;;;;;;;;;;;;-1.93;59.73;102438.78;5113143;28;19912;-69
2022/01/24 09:23:15;;;;;;;;;;;;;;;-1.85;59.43;102446.63;5094704;28;19908;-69
2022/01/24 09:25:41;;;;;;;;;;;;;;;-1.79;58.88;102455.38;5111828;28;20024;-69
2022/01/24 09:28:06;;;;;;;;;;;;;;;-1.76;58.74;102450.09;5093387;28;19918;-69
2022/01/24 09:30:31;;;;;;;;;;;;;;;-1.72;58.47;102443.94;5097213;28;19912;-70
2022/01/24 09:32:57;;;;;;;;;;;;;;;-1.67;58.32;102436.94;5096331;28;19965;-70
2022/01/24 09:35:22;;;;;;;;;;;;;;;-1.62;58.34;102440.41;5114435;27;20287;-67
2022/01/24 09:37:48;;;;;;;;;;;;;;;-1.54;58.17;102440.38;5132105;27;20412;-66
2022/01/24 09:40:15;;;;;;;;;;;;;;;-1.53;57.70;102440.38;5102991;28;19923;-66
2022/01/24 09:42:44;;;;;;;;;;;;;;;-1.47;57.04;102444.72;5100267;28;20365;-66
2022/01/24 09:45:12;;;;;;;;;;;;;;;-1.38;56.03;102445.56;5094411;27;19918;-67
2022/01/24 09:47:37;;;;;;;;;;;;;;;-1.34;56.05;102451.66;5092033;28;19912;-66
2022/01/24 09:50:04;;;;;;;;;;;;;;;-1.20;55.40;102458.59;5090810;28;20392;-66
2022/01/24 09:52:29;;;;;;;;;;;;;;;-1.21;55.73;102455.97;5090840;28;19915;-66
2022/01/24 09:54:55;;;;;;;;;;;;;;;-1.17;55.64;102457.69;5090841;28;19934;-66
2022/01/24 09:57:20;;;;;;;;;;;;;;;-1.13;55.51;102443.66;5096732;28;19920;-66
2022/01/24 09:59:46;;;;;;;;;;;;;;;-1.11;55.75;102448.03;5083976;28;19916;-66
2022/01/24 10:02:11;;;;;;;;;;;;;;;-1.04;55.88;102456.75;5089399;28;19923;-66
2022/01/24 10:04:38;;;;;;;;;;;;;;;-0.99;55.96;102441.78;5110596;28;20393;-64
2022/01/24 10:07:15;;;;;;;;;;;;;;;-0.98;55.84;102440.91;5109201;28;19926;-66
2022/01/24 10:09:43;;;;;;;;;;;;;;;-0.92;55.84;102441.75;5092944;28;20425;-65
2022/01/24 10:12:18;;;;;;;;;;;;;;;-0.89;55.82;102439.09;5108958;28;19950;-65
2022/01/24 10:17:29;;;;;;;;;;;;;;;-0.69;54.86;102454.72;5112298;28;19914;-68
2022/01/24 10:19:55;;;;;;;;;;;;;;;-0.72;55.19;102438.94;5098118;28;19916;-69
2022/01/24 10:22:23;;;;;;;;;;;;;;;-0.66;54.78;102431.00;5096036;28;19912;-69
2022/01/24 10:24:51;;;;;;;;;;;;;;;-0.61;54.65;102427.44;5090358;28;19998;-69
2022/01/24 10:27:23;;;;;;;;;;;;;;;-0.59;54.63;102430.06;5074086;28;19962;-69
2022/01/24 10:29:59;;;;;;;;;;;;;;;-0.53;54.84;102432.63;5109941;28;19912;-69
2022/01/24 10:32:36;;;;;;;;;;;;;;;-0.46;54.81;102434.31;5112161;28;19981;-69
2022/01/24 10:35:20;;;;;;;;;;;;;;;-0.43;54.09;102426.41;5111781;28;20045;-69
2022/01/24 10:37:48;;;;;;;;;;;;;;;-0.41;54.37;102430.78;5111478;28;19915;-69
2022/01/24 10:40:29;;;;;;;;;;;;;;;-0.38;54.42;102430.72;5073427;28;20366;-69
2022/01/24 10:43:14;;;;;;;;;;;;;;;-0.33;54.31;102430.69;5093090;28;20003;-69
2022/01/24 10:45:42;;;;;;;;;;;;;;;-0.31;54.05;102423.66;5107828;28;20371;-70
2022/01/24 10:48:07;;;;;;;;;;;;;;;-0.27;54.26;102425.34;5085111;28;19970;-70
2022/01/24 10:50:32;;;;;;;;;;;;;;;-0.17;53.76;102427.00;5091326;28;20412;-69
2022/01/24 10:53:08;;;;;;;;;;;;;;;-0.09;53.35;102426.03;5091485;28;20006;-70
2022/01/24 10:55:33;;;;;;;;;;;;;;;0.01;52.61;102416.28;5076676;28;19927;-69
2022/01/24 10:58:04;;;;;;;;;;;;;;;0.07;52.63;102425.88;5092231;28;19912;-70
2022/01/24 11:00:30;;;;;;;;;;;;;;;0.11;52.20;102420.53;5102898;28;20053;-70
2022/01/24 11:02:56;;;;;;;;;;;;;;;0.17;52.30;102419.59;5111709;28;19954;-68
2022/01/24 11:05:35;;;;;;;;;;;;;;;0.21;52.32;102418.66;5086718;28;19930;-66
2022/01/24 11:08:09;;;;;;;;;;;;;;;0.26;52.11;102423.00;5110718;28;19919;-66
2022/01/24 11:10:36;;;;;;;;;;;;;;;0.32;51.33;102424.69;5108232;28;19912;-67
2022/01/24 11:13:04;;;;;;;;;;;;;;;0.39;51.08;102426.38;5097702;28;20002;-66
2022/01/24 11:15:29;;;;;;;;;;;;;;;0.36;50.48;102429.94;5091972;28;19912;-66
2022/01/24 11:17:55;;;;;;;;;;;;;;;0.41;50.12;102420.16;5091858;28;19911;-67
2022/01/24 11:20:21;;;;;;;;;;;;;;;0.46;49.95;102428.03;5108706;27;19924;-66
2022/01/24 11:22:58;;;;;;;;;;;;;;;0.45;50.46;102421.88;5092814;28;19911;-67
2022/01/24 11:25:23;;;;;;;;;;;;;;;0.36;50.44;102395.63;5112196;28;19920;-66
2022/01/24 11:27:49;;;;;;;;;;;;;;;0.53;50.14;102420.00;5096881;27;19923;-66
2022/01/24 11:30:16;;;;;;;;;;;;;;;0.52;50.40;102409.47;5109337;27;19911;-67
2022/01/24 11:32:47;;;;;;;;;;;;;;;0.53;50.31;102409.44;5110776;28;19957;-66
2022/01/24 11:35:27;;;;;;;;;;;;;;;0.53;49.26;102393.63;5087692;28;19922;-68
2022/01/24 11:37:52;;;;;;;;;;;;;;;0.55;49.70;102404.16;5101156;27;19999;-67
2022/01/24 11:40:19;;;;;;;;;;;;;;;0.59;50.03;102403.22;5106123;27;20405;-67
2022/01/24 11:42:47;;;;;;;;;;;;;;;0.61;49.99;102401.44;5112181;28;20371;-66
2022/01/24 11:45:14;;;;;;;;;;;;;;;0.64;50.13;102399.59;5095953;27;19919;-66
2022/01/24 11:47:44;;;;;;;;;;;;;;;0.70;49.84;102388.97;5075209;28;19998;-67
2022/01/24 11:50:37;;;;;;;;;;;;;;;0.68;50.07;102385.44;5110258;28;20536;-67
2022/01/24 11:53:17;;;;;;;;;;;;;;;0.68;50.27;102381.97;5111743;28;19911;-66
2022/01/24 11:55:43;;;;;;;;;;;;;;;0.72;49.67;102387.19;5112291;28;20116;-66
2022/01/24 11:58:08;;;;;;;;;;;;;;;0.73;49.24;102396.84;5099320;28;20599;-65
2022/01/24 12:00:44;;;;;;;;;;;;;;;0.72;48.77;102397.75;5095665;27;19948;-67
2022/01/24 12:03:28;;;;;;;;;;;;;;;0.71;49.25;102388.06;5108537;28;20403;-64
2022/01/24 12:06:09;;;;;;;;;;;;;;;0.73;48.64;102381.00;5088745;28;19912;-66
2022/01/24 12:08:34;;;;;;;;;;;;;;;0.76;48.23;102394.16;5107775;28;20378;-69
2022/01/24 12:11:14;;;;;;;;;;;;;;;0.80;47.87;102393.22;5101684;27;19911;-69
2022/01/24 12:13:44;;;;;;;;;;;;;;;0.83;48.39;102387.00;5114325;28;19912;-70
2022/01/24 12:16:10;;;;;;;;;;;;;;;0.83;48.24;102387.88;5107175;27;19912;-70
2022/01/24 12:18:35;;;;;;;;;;;;;;;0.83;47.97;102387.88;5103659;28;19965;-69
2022/01/24 12:21:01;;;;;;;;;;;;;;;0.85;47.62;102391.38;5114233;28;19912;-70
2022/01/24 12:23:34;;;;;;;;;;;;;;;0.84;47.82;102379.06;5114136;28;19950;-69
2022/01/24 12:26:02;;;;;;;;;;;;;;;0.89;47.47;102392.19;5097520;28;19916;-70
2022/01/24 12:28:43;;;;;;;;;;;;;;;0.91;47.84;102390.41;5081347;28;20018;-70
2022/01/24 12:31:08;;;;;;;;;;;;;;;0.91;48.00;102386.00;5093233;28;19908;-70
2022/01/24 12:33:39;;;;;;;;;;;;;;;0.91;47.89;102379.84;5084709;28;19912;-70
2022/01/24 12:36:06;;;;;;;;;;;;;;;0.95;47.27;102377.13;5093059;28;19908;-70
2022/01/24 12:38:42;;;;;;;;;;;;;;;0.97;47.68;102369.19;5104862;27;19938;-68
2022/01/24 12:41:14;;;;;;;;;;;;;;;0.96;48.33;102367.41;5121318;27;19924;-69
2022/01/24 12:43:53;;;;;;;;;;;;;;;1.00;48.15;102369.16;5091319;28;20310;-70
2022/01/24 12:46:27;;;;;;;;;;;;;;;0.99;48.08;102362.97;5096162;27;20366;-70
2022/01/24 12:48:59;;;;;;;;;;;;;;;1.01;48.34;102361.19;5092840;28;19908;-70
2022/01/24 12:51:25;;;;;;;;;;;;;;;1.00;47.83;102362.06;5093006;28;19916;-70
2022/01/24 12:53:51;;;;;;;;;;;;;;;1.01;47.83;102368.25;5080301;28;19925;-70
2022/01/24 12:56:18;;;;;;;;;;;;;;;1.00;47.37;102364.72;5112975;28;20366;-69
2022/01/24 12:58:48;;;;;;;;;;;;;;;1.04;47.32;102357.63;5110630;28;19962;-70
2022/01/24 13:01:22;;;;;;;;;;;;;;;1.05;47.50;102351.44;5112437;28;19927;-69
2022/01/24 13:03:52;;;;;;;;;;;;;;;1.04;47.67;102352.34;5113105;28;19954;-69
2022/01/24 13:06:18;;;;;;;;;;;;;;;1.02;47.21;102341.78;5112928;28;19907;-69
2022/01/24 13:08:56;;;;;;;;;;;;;;;1.04;47.05;102347.94;5086939;28;19965;-69
2022/01/24 13:11:21;;;;;;;;;;;;;;;1.03;47.38;102342.69;5101972;28;19918;-69
2022/01/24 13:14:01;;;;;;;;;;;;;;;1.08;46.92;102348.75;5098106;27;19919;-69
2022/01/24 13:22:14;;;;;;;;;;;;;;;1.07;47.35;102350.53;5092163;28;19915;-66
2022/01/24 13:24:40;;;;;;;;;;;;;;;1.07;47.19;102345.25;5073033;28;19986;-66
2022/01/24 13:27:05;;;;;;;;;;;;;;;1.09;47.05;102361.03;5091218;28;19912;-67
2022/01/24 13:29:37;;;;;;;;;;;;;;;1.10;47.26;102358.38;5100341;27;20443;-67
2022/01/24 13:32:03;;;;;;;;;;;;;;;1.09;47.02;102359.28;5111650;28;19922;-67
2022/01/24 13:34:28;;;;;;;;;;;;;;;1.09;46.55;102363.69;5110036;28;19915;-66
2022/01/24 13:37:04;;;;;;;;;;;;;;;1.08;46.84;102354.91;5087535;28;20391;-67
2022/01/24 13:39:29;;;;;;;;;;;;;;;1.11;46.79;102365.44;5100490;28;20280;-67
2022/01/24 13:41:55;;;;;;;;;;;;;;;1.11;47.47;102362.78;5109987;28;19912;-67
2022/01/24 13:44:20;;;;;;;;;;;;;;;1.09;47.02;102359.28;5107853;28;19923;-67
2022/01/24 13:46:46;;;;;;;;;;;;;;;1.14;47.25;102362.75;5111556;28;19911;-67
2022/01/24 13:49:16;;;;;;;;;;;;;;;1.14;47.38;102368.03;5109660;28;20379;-67
2022/01/24 13:51:44;;;;;;;;;;;;;;;1.13;47.50;102368.03;5093033;28;19923;-67
2022/01/24 13:54:11;;;;;;;;;;;;;;;1.10;47.59;102368.94;5110203;28;20008;-67
2022/01/24 13:56:44;;;;;;;;;;;;;;;1.09;47.70;102367.22;5111545;28;19911;-67
2022/01/24 13:59:12;;;;;;;;;;;;;;;1.07;47.36;102366.38;5107939;28;20014;-70
2022/01/24 14:01:52;;;;;;;;;;;;;;;1.07;47.82;102365.50;5111609;28;19918;-67
2022/01/24 14:04:26;;;;;;;;;;;;;;;1.11;47.45;102367.19;5111195;28;20349;-67
2022/01/24 14:06:56;;;;;;;;;;;;;;;1.08;47.40;102368.13;5111499;28;19912;-67
2022/01/24 14:09:29;;;;;;;;;;;;;;;1.06;47.11;102369.91;5086102;28;19934;-67
2022/01/24 14:11:55;;;;;;;;;;;;;;;1.05;47.57;102378.72;5093253;28;20010;-68
2022/01/24 14:14:25;;;;;;;;;;;;;;;1.03;47.36;102375.22;5085849;28;20029;-68
2022/01/24 14:19:16;;;;;;;;;;;;;;;1.01;47.27;102377.03;5090775;28;19915;-68
2022/01/24 14:21:59;;;;;;;;;;;;;;;1.00;47.35;102377.06;5097298;28;19915;-69
2022/01/24 14:24:40;;;;;;;;;;;;;;;1.01;46.98;102376.16;5112292;28;19919;-70
2022/01/24 14:27:05;;;;;;;;;;;;;;;0.99;46.95;102378.81;5111002;28;19908;-67